Time;durP1;ratioP1;P1;durP2;ratioP2;P2;SDS_P1;SDS_P2;PMS_P1;PMS_P2;Temp;Humidity;BMP_temperature;BMP_pressure;BME280_temperature;BME280_humidity;BME280_pressure;Samples;Min_cycle;Max_cycle;Signal;HPM_P1;HPM_P2
2022/05/18 00:00:51;;;;;;;0.00;0.00;;;16.30;99.90;;;;;;5045566;28;20025;-90
2022/05/18 00:03:24;;;;;;;0.00;0.00;;;16.30;99.90;;;;;;5044992;28;20027;-89
2022/05/18 00:05:50;;;;;;;0.00;0.00;;;16.30;99.90;;;;;;5063786;28;20017;-89
2022/05/18 00:08:16;;;;;;;0.00;0.00;;;16.30;99.90;;;;;;5044960;28;20044;-90
2022/05/18 00:10:45;;;;;;;0.00;0.00;;;16.30;99.90;;;;;;5063022;28;20315;-82
2022/05/18 00:13:10;;;;;;;0.00;0.00;;;16.30;99.90;;;;;;5062806;28;20308;-78
2022/05/18 00:15:38;;;;;;;0.00;0.00;;;16.30;99.90;;;;;;5061191;28;20067;-85
2022/05/18 00:18:04;;;;;;;0.00;0.00;;;16.30;99.90;;;;;;5039467;28;20023;-90
2022/05/18 00:20:30;;;;;;;0.00;0.00;;;16.20;99.90;;;;;;5044349;28;20278;-80
2022/05/18 00:23:02;;;;;;;0.00;0.00;;;16.20;99.90;;;;;;5062742;28;20023;-88
2022/05/18 00:25:31;;;;;;;0.00;0.00;;;16.20;99.90;;;;;;5043617;28;20032;-77
2022/05/18 00:27:57;;;;;;;0.00;0.00;;;16.20;99.90;;;;;;5044637;28;20202;-83
2022/05/18 00:30:24;;;;;;;0.00;0.00;;;16.20;99.90;;;;;;5044280;28;20300;-91
2022/05/18 00:32:51;;;;;;;0.00;0.00;;;16.20;99.90;;;;;;5063820;28;20055;-89
2022/05/18 00:35:17;;;;;;;0.00;0.00;;;16.10;99.90;;;;;;5064552;28;20021;-88
2022/05/18 00:37:43;;;;;;;0.00;0.00;;;16.10;99.90;;;;;;5045471;28;20021;-83
2022/05/18 00:40:11;;;;;;;0.00;0.00;;;16.10;99.90;;;;;;5062240;28;20047;-84
2022/05/18 00:42:37;;;;;;;0.00;0.00;;;16.20;99.90;;;;;;5043767;28;20017;-82
2022/05/18 00:45:04;;;;;;;0.00;0.00;;;16.20;99.90;;;;;;5062417;28;20067;-88
2022/05/18 00:47:30;;;;;;;0.00;0.00;;;16.10;99.90;;;;;;5045359;28;20043;-90
2022/05/18 00:50:03;;;;;;;0.00;0.00;;;16.10;99.90;;;;;;5064188;28;20044;-88
2022/05/18 00:52:36;;;;;;;0.00;0.00;;;16.10;99.90;;;;;;5062951;28;20049;-76
2022/05/18 00:55:04;;;;;;;0.00;0.00;;;16.00;99.90;;;;;;5064006;28;20035;-88
2022/05/18 00:57:40;;;;;;;0.00;0.00;;;16.00;99.90;;;;;;5062844;28;20079;-88
2022/05/18 01:00:15;;;;;;;0.00;0.00;;;16.00;99.90;;;;;;5063306;28;20277;-86
2022/05/18 01:02:49;;;;;;;0.00;0.00;;;15.90;99.90;;;;;;5047429;28;20040;-89
2022/05/18 01:05:20;;;;;;;0.00;0.00;;;16.00;99.90;;;;;;5047669;28;20028;-77
2022/05/18 01:07:50;;;;;;;0.00;0.00;;;16.00;99.90;;;;;;5049232;28;20089;-88
2022/05/18 01:10:16;;;;;;;0.00;0.00;;;15.90;99.90;;;;;;5070603;28;20044;-83
2022/05/18 01:12:42;;;;;;;0.00;0.00;;;15.90;99.90;;;;;;5071008;28;20043;-83
2022/05/18 01:15:11;;;;;;;0.00;0.00;;;15.90;99.90;;;;;;5053531;28;20043;-75
2022/05/18 01:17:40;;;;;;;0.00;0.00;;;15.90;99.90;;;;;;5052950;28;20067;-84
2022/05/18 01:20:12;;;;;;;0.00;0.00;;;15.90;99.90;;;;;;5070356;28;20032;-86
2022/05/18 01:23:18;;;;;;;0.00;0.00;;;15.80;99.90;;;;;;5054185;28;20123;-74
2022/05/18 01:26:13;;;;;;;0.00;0.00;;;15.80;99.90;;;;;;5054855;28;20048;-91
2022/05/18 01:28:42;;;;;;;0.00;0.00;;;15.70;99.90;;;;;;5067815;28;20020;-77
2022/05/18 01:31:09;;;;;;;0.00;0.00;;;15.70;99.90;;;;;;5065990;28;20021;-76
2022/05/18 01:33:35;;;;;;;0.00;0.00;;;15.70;99.90;;;;;;5066775;28;20033;-87
2022/05/18 01:36:02;;;;;;;0.00;0.00;;;15.70;99.90;;;;;;5051461;28;20024;-91
2022/05/18 01:38:29;;;;;;;0.00;0.00;;;15.70;99.90;;;;;;5048597;28;20021;-78
2022/05/18 01:41:04;;;;;;;0.00;0.00;;;15.70;99.90;;;;;;5048988;28;20044;-86
2022/05/18 01:43:39;;;;;;;0.00;0.00;;;15.70;99.90;;;;;;5065592;28;20028;-81
2022/05/18 01:46:08;;;;;;;0.00;0.00;;;15.60;99.90;;;;;;5066848;28;20021;-93
2022/05/18 01:48:37;;;;;;;0.00;0.00;;;15.60;99.90;;;;;;5065914;28;20013;-83
2022/05/18 01:51:05;;;;;;;0.00;0.00;;;15.60;99.90;;;;;;5065905;28;20020;-82
2022/05/18 01:53:33;;;;;;;0.00;0.00;;;15.60;99.90;;;;;;5062604;28;20047;-87
2022/05/18 01:55:59;;;;;;;0.00;0.00;;;15.60;99.90;;;;;;5064139;28;20021;-80
2022/05/18 01:58:25;;;;;;;0.00;0.00;;;15.60;99.90;;;;;;5063330;28;20027;-86
2022/05/18 02:00:52;;;;;;;0.00;0.00;;;15.60;99.90;;;;;;5063995;28;20047;-92
2022/05/18 02:03:19;;;;;;;0.00;0.00;;;15.60;99.90;;;;;;5064581;28;20021;-75
2022/05/18 02:05:44;;;;;;;0.00;0.00;;;15.60;99.90;;;;;;5051068;28;20059;-91
2022/05/18 02:08:11;;;;;;;0.00;0.00;;;15.60;99.90;;;;;;5065087;28;20029;-89
2022/05/18 02:10:37;;;;;;;0.00;0.00;;;15.50;99.90;;;;;;5061936;28;20017;-87
2022/05/18 02:13:03;;;;;;;0.00;0.00;;;15.50;99.90;;;;;;5061433;28;20044;-90
2022/05/18 02:15:30;;;;;;;0.00;0.00;;;15.50;99.90;;;;;;5060307;28;20063;-87
2022/05/18 02:17:56;;;;;;;0.00;0.00;;;15.50;99.90;;;;;;5060709;28;20013;-89
2022/05/18 02:20:21;;;;;;;0.00;0.00;;;15.50;99.90;;;;;;5042328;28;20021;-90
2022/05/18 02:22:48;;;;;;;0.00;0.00;;;15.50;99.90;;;;;;5043413;28;20166;-79
2022/05/18 02:25:15;;;;;;;0.00;0.00;;;15.40;99.90;;;;;;5062214;28;20025;-78
2022/05/18 02:27:40;;;;;;;0.00;0.00;;;15.10;99.90;;;;;;5045565;28;20042;-82
2022/05/18 02:30:08;;;;;;;0.00;0.00;;;15.40;99.90;;;;;;5045313;28;20020;-86
2022/05/18 02:32:33;;;;;;;0.00;0.00;;;15.40;99.90;;;;;;5042662;28;20044;-90
2022/05/18 02:34:59;;;;;;;0.00;0.00;;;15.40;99.90;;;;;;5042510;28;20033;-85
2022/05/18 02:37:26;;;;;;;0.00;0.00;;;15.40;99.90;;;;;;5042271;28;20035;-91
2022/05/18 02:39:52;;;;;;;0.00;0.00;;;15.40;99.90;;;;;;5060218;28;20052;-91
2022/05/18 02:42:18;;;;;;;0.00;0.00;;;15.40;99.90;;;;;;5042110;28;20220;-77
2022/05/18 02:44:43;;;;;;;0.00;0.00;;;15.30;99.90;;;;;;5043302;28;20296;-92
2022/05/18 02:47:09;;;;;;;0.00;0.00;;;15.40;99.90;;;;;;5059580;28;20208;-88
2022/05/18 02:49:35;;;;;;;0.00;0.00;;;15.30;99.90;;;;;;5059289;28;20190;-81
2022/05/18 02:52:01;;;;;;;0.00;0.00;;;15.40;99.90;;;;;;5041455;28;20021;-89
2022/05/18 02:57:11;;;;;;;0.00;0.00;;;15.40;99.90;;;;;;5059518;28;20298;-90
2022/05/18 02:59:37;;;;;;;0.00;0.00;;;15.30;99.90;;;;;;5059799;28;20084;-90
2022/05/18 03:02:03;;;;;;;0.00;0.00;;;15.30;99.90;;;;;;5042210;28;20025;-87
2022/05/18 03:04:30;;;;;;;0.00;0.00;;;15.40;99.90;;;;;;5063814;28;20021;-90
2022/05/18 03:06:57;;;;;;;0.00;0.00;;;15.40;99.90;;;;;;5046576;28;20216;-93
2022/05/18 03:09:41;;;;;;;0.00;0.00;;;15.40;99.90;;;;;;5059495;28;20039;-88
2022/05/18 03:12:07;;;;;;;0.00;0.00;;;15.40;99.90;;;;;;5060551;28;20055;-91
2022/05/18 03:14:33;;;;;;;0.00;0.00;;;15.40;99.90;;;;;;5059137;28;20036;-80
2022/05/18 03:16:59;;;;;;;0.00;0.00;;;15.30;99.90;;;;;;5059522;28;20312;-88
2022/05/18 03:19:25;;;;;;;0.00;0.00;;;15.30;99.90;;;;;;5058776;28;20021;-89
2022/05/18 03:24:36;;;;;;;0.00;0.00;;;15.30;99.90;;;;;;5058930;28;20036;-89
2022/05/18 03:27:02;;;;;;;0.00;0.00;;;15.20;99.90;;;;;;5041794;28;20021;-89
2022/05/18 03:29:28;;;;;;;0.00;0.00;;;15.20;99.90;;;;;;5041139;28;20029;-76
2022/05/18 03:31:54;;;;;;;0.00;0.00;;;15.20;99.90;;;;;;5059796;28;20253;-90
2022/05/18 03:34:19;;;;;;;0.00;0.00;;;15.30;99.90;;;;;;5060030;28;20070;-87
2022/05/18 03:36:45;;;;;;;0.00;0.00;;;15.20;99.90;;;;;;5061742;28;20021;-84
2022/05/18 03:39:11;;;;;;;0.00;0.00;;;15.20;99.90;;;;;;5061272;28;20076;-88
2022/05/18 03:41:37;;;;;;;0.00;0.00;;;15.20;99.90;;;;;;5043686;28;20364;-78
2022/05/18 03:44:04;;;;;;;0.00;0.00;;;15.20;99.90;;;;;;5064154;28;20029;-84
2022/05/18 03:46:30;;;;;;;0.00;0.00;;;15.20;99.90;;;;;;5064935;28;20040;-90
2022/05/18 03:48:56;;;;;;;0.00;0.00;;;15.20;99.90;;;;;;5043625;28;20024;-90
2022/05/18 03:51:22;;;;;;;0.00;0.00;;;15.20;99.90;;;;;;5043074;28;20017;-83
2022/05/18 03:53:48;;;;;;;0.00;0.00;;;15.20;99.90;;;;;;5061765;28;20364;-79
2022/05/18 03:56:15;;;;;;;0.00;0.00;;;15.20;99.90;;;;;;5061803;28;20343;-78
2022/05/18 03:58:41;;;;;;;0.00;0.00;;;15.20;99.90;;;;;;5061018;28;20045;-90
2022/05/18 04:01:08;;;;;;;0.00;0.00;;;15.20;99.90;;;;;;5044227;28;20096;-94
2022/05/18 04:03:35;;;;;;;0.00;0.00;;;15.10;99.90;;;;;;5044346;28;20052;-91
2022/05/18 04:06:02;;;;;;;0.00;0.00;;;15.20;99.90;;;;;;5063385;28;20031;-84
2022/05/18 04:08:27;;;;;;;0.00;0.00;;;15.10;99.90;;;;;;5062858;28;20226;-76
2022/05/18 04:10:54;;;;;;;0.00;0.00;;;15.10;99.90;;;;;;5045514;28;20017;-88
2022/05/18 04:13:24;;;;;;;0.00;0.00;;;15.10;99.90;;;;;;5066625;28;20036;-84
2022/05/18 04:15:51;;;;;;;0.00;0.00;;;15.20;99.90;;;;;;5066076;28;20017;-88
2022/05/18 04:18:17;;;;;;;0.00;0.00;;;15.10;99.90;;;;;;5066976;28;20028;-78
2022/05/18 04:20:43;;;;;;;0.00;0.00;;;15.20;99.90;;;;;;5070546;28;20016;-92
2022/05/18 04:23:10;;;;;;;0.00;0.00;;;15.20;99.90;;;;;;5069004;28;20025;-88
2022/05/18 04:25:36;;;;;;;0.00;0.00;;;15.20;99.90;;;;;;5051514;28;20017;-84
2022/05/18 04:28:04;;;;;;;0.00;0.00;;;15.20;99.90;;;;;;5052755;28;20021;-81
2022/05/18 04:30:29;;;;;;;0.00;0.00;;;15.20;99.90;;;;;;5050696;28;20044;-80
2022/05/18 04:32:55;;;;;;;0.00;0.00;;;15.20;99.90;;;;;;5067739;28;20020;-90
2022/05/18 04:35:23;;;;;;;0.00;0.00;;;15.20;99.90;;;;;;5066827;28;20017;-81
2022/05/18 04:37:49;;;;;;;0.00;0.00;;;15.20;99.90;;;;;;5049385;28;20203;-87
2022/05/18 04:40:16;;;;;;;0.00;0.00;;;15.20;99.90;;;;;;5068931;28;20013;-74
2022/05/18 04:42:42;;;;;;;0.00;0.00;;;15.20;99.90;;;;;;5066054;28;20020;-85
2022/05/18 04:45:11;;;;;;;0.00;0.00;;;15.20;99.90;;;;;;5063864;28;20182;-78
2022/05/18 04:47:37;;;;;;;0.00;0.00;;;15.20;99.90;;;;;;5062980;28;20208;-92
2022/05/18 04:50:03;;;;;;;0.00;0.00;;;15.20;99.90;;;;;;5044847;28;20024;-87
2022/05/18 04:52:29;;;;;;;0.00;0.00;;;15.30;99.90;;;;;;5050071;28;20266;-90
2022/05/18 04:54:55;;;;;;;0.00;0.00;;;15.30;99.90;;;;;;5082645;28;20058;-90
2022/05/18 04:57:22;;;;;;;0.00;0.00;;;15.30;99.90;;;;;;5081358;28;20028;-82
2022/05/18 04:59:48;;;;;;;0.00;0.00;;;15.30;99.90;;;;;;5083311;28;20024;-79
2022/05/18 05:02:13;;;;;;;0.00;0.00;;;15.30;99.90;;;;;;5081293;28;20039;-92
2022/05/18 05:04:40;;;;;;;0.00;0.00;;;15.30;99.90;;;;;;5082317;28;20024;-86
2022/05/18 05:07:06;;;;;;;0.00;0.00;;;15.40;99.90;;;;;;5083256;28;20073;-93
2022/05/18 05:09:32;;;;;;;0.00;0.00;;;15.40;99.90;;;;;;5081387;28;20024;-90
2022/05/18 05:11:58;;;;;;;0.00;0.00;;;15.40;99.90;;;;;;5082214;28;20027;-76
2022/05/18 05:14:24;;;;;;;0.00;0.00;;;15.40;99.90;;;;;;5082320;28;20292;-86
2022/05/18 05:16:49;;;;;;;0.00;0.00;;;15.40;99.90;;;;;;5083857;28;20076;-87
2022/05/18 05:19:16;;;;;;;0.00;0.00;;;15.50;99.90;;;;;;5082473;28;20036;-77
2022/05/18 05:21:42;;;;;;;0.00;0.00;;;15.40;99.90;;;;;;5082046;28;20020;-90
2022/05/18 05:24:16;;;;;;;0.00;0.00;;;15.50;99.90;;;;;;5083228;28;20065;-77
2022/05/18 05:26:43;;;;;;;0.00;0.00;;;15.50;99.90;;;;;;5081060;28;20092;-86
2022/05/18 05:29:10;;;;;;;0.00;0.00;;;15.50;99.90;;;;;;5082703;28;20051;-77
2022/05/18 05:31:37;;;;;;;0.00;0.00;;;15.50;99.90;;;;;;5080324;28;20331;-88
2022/05/18 05:34:03;;;;;;;0.00;0.00;;;15.50;99.90;;;;;;5080767;28;20052;-87
2022/05/18 05:36:30;;;;;;;0.00;0.00;;;15.50;99.90;;;;;;5080164;28;20077;-87
2022/05/18 05:38:57;;;;;;;0.00;0.00;;;15.50;99.90;;;;;;5084727;28;20016;-86
2022/05/18 05:41:23;;;;;;;0.00;0.00;;;15.50;99.90;;;;;;5085993;28;20017;-81
2022/05/18 05:43:50;;;;;;;0.00;0.00;;;15.60;99.90;;;;;;5082068;28;20020;-88
2022/05/18 05:46:17;;;;;;;0.00;0.00;;;15.60;99.90;;;;;;5082402;28;20020;-85
2022/05/18 05:48:45;;;;;;;0.00;0.00;;;15.60;99.90;;;;;;5084434;28;20042;-93
2022/05/18 05:51:13;;;;;;;0.00;0.00;;;15.60;99.90;;;;;;5082949;28;20020;-79
2022/05/18 05:53:44;;;;;;;0.00;0.00;;;15.60;99.90;;;;;;5064350;28;20273;-80
2022/05/18 05:56:12;;;;;;;0.00;0.00;;;15.60;99.90;;;;;;5041902;28;20096;-88
2022/05/18 05:58:38;;;;;;;0.00;0.00;;;15.60;99.90;;;;;;5041251;28;20419;-76
2022/05/18 06:01:06;;;;;;;0.00;0.00;;;15.60;99.90;;;;;;5059469;28;20323;-85
2022/05/18 06:03:33;;;;;;;0.00;0.00;;;15.60;99.90;;;;;;5041098;28;20035;-85
2022/05/18 06:05:59;;;;;;;0.00;0.00;;;15.70;99.90;;;;;;5056466;28;20092;-84
2022/05/18 06:08:25;;;;;;;0.00;0.00;;;15.70;99.90;;;;;;5059875;28;20119;-89
2022/05/18 06:10:51;;;;;;;0.00;0.00;;;15.80;99.90;;;;;;5060021;28;20235;-80
2022/05/18 06:13:17;;;;;;;0.00;0.00;;;16.00;99.90;;;;;;5041976;28;20328;-79
2022/05/18 06:15:43;;;;;;;0.00;0.00;;;16.40;99.90;;;;;;5060035;28;20017;-83
2022/05/18 06:18:09;;;;;;;0.00;0.00;;;16.80;99.90;;;;;;5061283;28;20103;-83
2022/05/18 06:20:35;;;;;;;0.00;0.00;;;17.40;99.90;;;;;;5042722;28;20422;-85
2022/05/18 06:23:02;;;;;;;0.00;0.00;;;17.90;99.90;;;;;;5042518;28;20021;-85
2022/05/18 06:25:29;;;;;;;0.00;0.00;;;18.40;98.70;;;;;;5042072;28;20024;-78
2022/05/18 06:27:55;;;;;;;0.00;0.00;;;18.70;97.80;;;;;;5060105;28;20204;-83
2022/05/18 06:30:22;;;;;;;0.00;0.00;;;19.00;98.40;;;;;;5059310;28;20017;-78
2022/05/18 06:32:47;;;;;;;0.00;0.00;;;19.40;97.80;;;;;;5059503;28;20028;-77
2022/05/18 06:35:13;;;;;;;0.00;0.00;;;19.50;97.10;;;;;;5041357;28;20119;-85
2022/05/18 06:37:39;;;;;;;0.00;0.00;;;19.70;95.90;;;;;;5058975;28;20100;-86
2022/05/18 06:40:07;;;;;;;0.00;0.00;;;19.80;96.80;;;;;;5059080;28;20281;-85
2022/05/18 06:42:33;;;;;;;0.00;0.00;;;20.00;95.70;;;;;;5059014;28;20021;-87
2022/05/18 06:45:00;;;;;;;0.00;0.00;;;20.20;95.80;;;;;;5041245;28;20082;-86
2022/05/18 06:47:26;;;;;;;0.00;0.00;;;20.30;94.90;;;;;;5058829;28;20021;-86
2022/05/18 06:49:52;;;;;;;0.00;0.00;;;20.50;94.40;;;;;;5059890;28;20021;-80
2022/05/18 06:52:19;;;;;;;0.00;0.00;;;20.90;95.70;;;;;;5058669;28;20103;-77
2022/05/18 06:54:46;;;;;;;0.00;0.00;;;20.90;93.90;;;;;;5041155;28;20037;-87
2022/05/18 06:57:12;;;;;;;0.00;0.00;;;20.90;93.80;;;;;;5041559;28;20127;-88
2022/05/18 06:59:38;;;;;;;0.00;0.00;;;21.10;94.00;;;;;;5058779;28;20087;-79
2022/05/18 07:02:04;;;;;;;0.00;0.00;;;21.30;93.30;;;;;;5059845;28;20048;-88
2022/05/18 07:04:30;;;;;;;0.00;0.00;;;21.30;93.50;;;;;;5040863;28;20189;-86
2022/05/18 07:06:57;;;;;;;0.00;0.00;;;21.30;93.00;;;;;;5042027;28;20021;-83
2022/05/18 07:09:24;;;;;;;0.00;0.00;;;21.00;92.80;;;;;;5058851;28;20021;-79
2022/05/18 07:11:50;;;;;;;0.00;0.00;;;21.00;93.20;;;;;;5060764;28;20048;-89
2022/05/18 07:14:19;;;;;;;0.00;0.00;;;20.60;92.80;;;;;;5042844;28;20031;-84
2022/05/18 07:16:45;;;;;;;0.00;0.00;;;20.20;93.10;;;;;;5059527;28;20025;-85
2022/05/18 07:19:11;;;;;;;0.00;0.00;;;19.70;93.30;;;;;;5041663;28;20308;-85
2022/05/18 07:21:38;;;;;;;0.00;0.00;;;19.40;94.30;;;;;;5059227;28;20025;-88
2022/05/18 07:24:04;;;;;;;0.00;0.00;;;19.20;94.30;;;;;;5041870;28;20310;-88
2022/05/18 07:26:30;;;;;;;0.00;0.00;;;18.90;94.50;;;;;;5059877;28;20320;-88
2022/05/18 07:34:26;;;;;;;0.00;0.00;;;18.40;95.70;;;;;;5059150;28;20027;-82
2022/05/18 07:36:53;;;;;;;0.00;0.00;;;18.30;95.80;;;;;;5060823;28;20029;-85
2022/05/18 07:39:19;;;;;;;0.00;0.00;;;18.20;96.40;;;;;;5047535;28;20023;-81
2022/05/18 07:41:45;;;;;;;0.00;0.00;;;18.20;96.40;;;;;;5066495;28;20052;-85
2022/05/18 07:44:12;;;;;;;0.00;0.00;;;18.30;95.80;;;;;;5049659;28;20020;-83
2022/05/18 07:46:38;;;;;;;0.00;0.00;;;18.20;95.30;;;;;;5067546;28;20049;-78
2022/05/18 07:49:04;;;;;;;0.00;0.00;;;18.20;94.30;;;;;;5067761;28;20080;-85
2022/05/18 07:51:31;;;;;;;0.00;0.00;;;18.20;94.60;;;;;;5045108;28;20020;-83
2022/05/18 07:53:57;;;;;;;0.00;0.00;;;18.10;94.30;;;;;;5067338;28;20037;-86
2022/05/18 07:56:23;;;;;;;0.00;0.00;;;18.10;95.30;;;;;;5049871;28;20036;-75
2022/05/18 07:58:48;;;;;;;0.00;0.00;;;18.10;94.30;;;;;;5052436;28;20016;-79
2022/05/18 08:01:15;;;;;;;0.00;0.00;;;18.10;95.00;;;;;;5051629;28;20044;-86
2022/05/18 08:03:41;;;;;;;0.00;0.00;;;18.20;94.80;;;;;;5054352;28;20024;-81
2022/05/18 08:06:07;;;;;;;0.00;0.00;;;18.20;94.90;;;;;;5056392;28;20021;-82
2022/05/18 08:08:33;;;;;;;0.00;0.00;;;18.20;93.70;;;;;;5071997;28;20017;-83
2022/05/18 08:16:30;;;;;;;0.00;0.00;;;18.40;93.40;;;;;;5068686;28;20032;-79
2022/05/18 08:18:57;;;;;;;0.00;0.00;;;18.60;92.40;;;;;;5049950;28;20024;-85
2022/05/18 08:21:23;;;;;;;0.00;0.00;;;18.80;92.50;;;;;;5046709;28;20044;-76
2022/05/18 08:23:49;;;;;;;0.00;0.00;;;19.10;91.80;;;;;;5047925;28;20109;-84
2022/05/18 08:26:14;;;;;;;0.00;0.00;;;19.80;91.00;;;;;;5045845;28;20181;-88
2022/05/18 08:28:41;;;;;;;0.00;0.00;;;20.70;89.30;;;;;;5065472;28;20140;-83
2022/05/18 08:31:08;;;;;;;0.00;0.00;;;21.80;89.20;;;;;;5050265;28;20042;-86
2022/05/18 08:33:34;;;;;;;0.00;0.00;;;22.60;84.70;;;;;;5048161;28;20017;-86
2022/05/18 08:36:04;;;;;;;0.00;0.00;;;23.50;81.00;;;;;;5065211;28;20245;-86
2022/05/18 08:38:30;;;;;;;0.00;0.00;;;24.30;78.90;;;;;;5065839;28;20028;-85
2022/05/18 08:41:08;;;;;;;0.00;0.00;;;25.00;73.00;;;;;;5048077;28;20044;-86
2022/05/18 08:43:38;;;;;;;0.00;0.00;;;25.50;70.70;;;;;;5043673;28;20017;-84
2022/05/18 08:46:17;;;;;;;0.00;0.00;;;26.20;72.00;;;;;;5044479;28;20025;-83
2022/05/18 08:48:45;;;;;;;0.00;0.00;;;26.40;69.80;;;;;;5061454;28;20013;-86
2022/05/18 08:51:45;;;;;;;0.00;0.00;;;26.50;64.90;;;;;;5062602;28;20028;-86
2022/05/18 08:54:23;;;;;;;0.00;0.00;;;27.20;65.10;;;;;;5078571;28;20052;-80
2022/05/18 08:56:52;;;;;;;0.00;0.00;;;27.00;60.20;;;;;;5081138;28;20104;-82
2022/05/18 08:59:37;;;;;;;0.00;0.00;;;26.70;59.30;;;;;;5082233;28;20030;-78
2022/05/18 09:02:16;;;;;;;0.00;0.00;;;26.90;60.80;;;;;;5082224;28;20058;-84
2022/05/18 09:04:56;;;;;;;0.00;0.00;;;27.70;60.40;;;;;;5081803;28;20098;-79
2022/05/18 09:07:27;;;;;;;0.00;0.00;;;28.40;63.00;;;;;;5080108;28;20020;-81
2022/05/18 09:10:12;;;;;;;0.00;0.00;;;28.80;66.60;;;;;;5082010;28;20013;-83
2022/05/18 09:12:44;;;;;;;0.00;0.00;;;29.00;57.30;;;;;;5079257;28;20096;-78
2022/05/18 09:15:13;;;;;;;0.00;0.00;;;29.00;56.00;;;;;;5079853;28;20038;-84
2022/05/18 09:17:54;;;;;;;0.00;0.00;;;29.00;55.60;;;;;;5071183;28;20017;-77
2022/05/18 09:20:45;;;;;;;0.00;0.00;;;29.80;59.90;;;;;;5068854;28;20091;-81
2022/05/18 09:23:29;;;;;;;0.00;0.00;;;30.90;62.40;;;;;;5067138;28;20027;-79
2022/05/18 09:26:10;;;;;;;0.00;0.00;;;31.60;56.50;;;;;;5066723;28;20012;-79
2022/05/18 09:29:06;;;;;;;0.00;0.00;;;31.00;53.60;;;;;;5066438;28;20406;-79
2022/05/18 09:31:50;;;;;;;0.00;0.00;;;31.60;59.70;;;;;;5066670;28;20030;-79
2022/05/18 09:34:25;;;;;;;0.00;0.00;;;32.40;61.10;;;;;;5068669;28;20341;-78
2022/05/18 09:36:58;;;;;;;0.00;0.00;;;32.20;53.30;;;;;;5067348;28;20433;-78
2022/05/18 09:39:27;;;;;;;0.00;0.00;;;32.80;51.00;;;;;;5067326;28;20020;-77
2022/05/18 09:41:59;;;;;;;0.00;0.00;;;32.90;48.80;;;;;;5068160;28;20023;-78
2022/05/18 09:44:43;;;;;;;0.00;0.00;;;32.60;48.20;;;;;;5068025;28;20135;-78
2022/05/18 09:47:18;;;;;;;0.00;0.00;;;31.60;46.70;;;;;;5068229;28;20138;-78
2022/05/18 09:49:54;;;;;;;0.00;0.00;;;31.00;50.50;;;;;;5066253;28;20047;-78
2022/05/18 09:52:24;;;;;;;0.00;0.00;;;30.50;50.00;;;;;;5064118;28;20094;-80
2022/05/18 09:54:54;;;;;;;0.00;0.00;;;30.70;57.10;;;;;;5031240;28;20083;-84
2022/05/18 09:57:24;;;;;;;0.00;0.00;;;31.80;50.80;;;;;;5047053;28;20028;-77
2022/05/18 09:59:57;;;;;;;0.00;0.00;;;32.10;49.20;;;;;;5048249;28;20389;-78
2022/05/18 10:08:11;;;;;;;0.00;0.00;;;33.00;47.90;;;;;;5047415;28;20020;-80
2022/05/18 10:10:38;;;;;;;0.00;0.00;;;33.50;55.60;;;;;;5029890;28;20021;-78
2022/05/18 10:13:14;;;;;;;0.00;0.00;;;32.90;46.40;;;;;;5047938;28;20023;-78
2022/05/18 10:15:47;;;;;;;0.00;0.00;;;32.80;46.80;;;;;;5029311;28;20074;-79
2022/05/18 10:18:46;;;;;;;0.00;0.00;;;32.20;47.60;;;;;;5047519;28;20243;-79
2022/05/18 10:21:23;;;;;;;0.00;0.00;;;32.10;46.00;;;;;;5030210;28;20019;-79
2022/05/18 10:23:51;;;;;;;0.00;0.00;;;31.40;47.40;;;;;;5047055;28;20040;-79
2022/05/18 10:26:39;;;;;;;0.00;0.00;;;31.50;46.50;;;;;;5047661;28;20145;-79
2022/05/18 10:29:28;;;;;;;0.00;0.00;;;32.20;47.30;;;;;;5046983;28;20078;-78
2022/05/18 10:32:18;;;;;;;0.00;0.00;;;33.50;50.50;;;;;;5046405;28;20039;-79
2022/05/18 10:34:48;;;;;;;0.00;0.00;;;33.30;46.30;;;;;;5029318;28;20075;-81
2022/05/18 10:37:29;;;;;;;0.00;0.00;;;32.70;44.30;;;;;;5048591;28;20048;-78
2022/05/18 10:40:03;;;;;;;0.00;0.00;;;32.70;44.00;;;;;;5047937;28;20020;-79
2022/05/18 10:43:10;;;;;;;0.00;0.00;;;32.40;45.30;;;;;;5028328;28;20178;-79
2022/05/18 10:45:37;;;;;;;0.00;0.00;;;32.70;45.30;;;;;;5049726;28;20070;-79
2022/05/18 10:48:10;;;;;;;0.00;0.00;;;32.20;43.50;;;;;;5029863;28;20024;-76
2022/05/18 10:50:38;;;;;;;0.00;0.00;;;32.20;44.30;;;;;;5029719;28;20104;-77
2022/05/18 10:53:12;;;;;;;0.00;0.00;;;32.80;49.50;;;;;;5044368;28;20145;-79
2022/05/18 10:55:53;;;;;;;0.00;0.00;;;33.70;44.70;;;;;;5066750;28;20208;-78
2022/05/18 10:58:25;;;;;;;0.00;0.00;;;32.90;42.90;;;;;;5067516;28;20016;-79
2022/05/18 11:01:00;;;;;;;0.00;0.00;;;33.30;47.50;;;;;;5067948;28;20020;-85
2022/05/18 11:03:38;;;;;;;0.00;0.00;;;34.00;52.00;;;;;;5069186;28;20024;-78
2022/05/18 11:06:03;;;;;;;0.00;0.00;;;34.50;44.80;;;;;;5068216;28;20074;-79
2022/05/18 11:08:32;;;;;;;0.00;0.00;;;34.50;44.70;;;;;;5065628;28;20013;-80
2022/05/18 11:11:16;;;;;;;0.00;0.00;;;33.60;43.50;;;;;;5068713;28;20040;-80
2022/05/18 11:14:09;;;;;;;0.00;0.00;;;33.20;42.30;;;;;;5067032;28;20039;-86
2022/05/18 11:16:55;;;;;;;0.00;0.00;;;32.90;43.60;;;;;;5067942;28;20028;-80
2022/05/18 11:19:44;;;;;;;0.00;0.00;;;32.60;44.40;;;;;;5065316;28;20398;-76
2022/05/18 11:22:26;;;;;;;0.00;0.00;;;32.70;43.10;;;;;;5065465;28;20078;-77
2022/05/18 11:24:57;;;;;;;0.00;0.00;;;32.70;44.50;;;;;;5067450;28;20028;-77
2022/05/18 11:27:48;;;;;;;0.00;0.00;;;32.90;45.10;;;;;;5068746;28;20100;-78
2022/05/18 11:30:23;;;;;;;0.00;0.00;;;32.50;43.40;;;;;;5069128;28;20427;-81
2022/05/18 11:33:17;;;;;;;0.00;0.00;;;32.00;44.30;;;;;;5069041;28;20080;-78
2022/05/18 11:35:48;;;;;;;0.00;0.00;;;31.40;41.90;;;;;;5068848;28;20079;-77
2022/05/18 11:38:31;;;;;;;0.00;0.00;;;30.50;42.90;;;;;;5069927;28;20400;-80
2022/05/18 11:41:25;;;;;;;0.00;0.00;;;29.50;41.90;;;;;;5068477;28;20020;-78
2022/05/18 11:43:53;;;;;;;0.00;0.00;;;28.70;41.40;;;;;;5068159;28;20020;-79
2022/05/18 11:46:57;;;;;;;0.00;0.00;;;27.50;44.30;;;;;;5068918;28;20059;-78
2022/05/18 11:49:48;;;;;;;0.00;0.00;;;27.40;45.00;;;;;;5068943;28;20069;-79
2022/05/18 11:52:32;;;;;;;0.00;0.00;;;26.20;43.70;;;;;;5057235;28;20099;-78
2022/05/18 11:55:27;;;;;;;0.00;0.00;;;25.10;46.20;;;;;;5051801;28;20033;-79
2022/05/18 11:58:11;;;;;;;0.00;0.00;;;24.30;46.10;;;;;;5049938;28;20020;-79
2022/05/18 12:00:56;;;;;;;0.00;0.00;;;24.10;47.80;;;;;;5031817;28;20078;-79
2022/05/18 12:03:43;;;;;;;0.00;0.00;;;23.60;46.70;;;;;;5049375;28;20013;-78
2022/05/18 12:07:01;;;;;;;0.00;0.00;;;23.10;46.90;;;;;;5033297;28;20031;-78
2022/05/18 12:09:42;;;;;;;0.00;0.00;;;22.70;48.20;;;;;;5047465;28;20028;-78
2022/05/18 12:12:34;;;;;;;0.00;0.00;;;22.20;45.20;;;;;;5031578;28;20432;-77
2022/05/18 12:15:34;;;;;;;0.00;0.00;;;22.10;46.90;;;;;;5031276;28;20028;-78
2022/05/18 12:18:04;;;;;;;0.00;0.00;;;21.90;46.90;;;;;;5028247;28;20107;-78
2022/05/18 12:20:42;;;;;;;0.00;0.00;;;21.80;45.90;;;;;;5049532;28;20116;-78
2022/05/18 12:23:15;;;;;;;0.00;0.00;;;21.60;46.90;;;;;;5048785;28;20009;-79
2022/05/18 12:25:42;;;;;;;0.00;0.00;;;21.70;46.80;;;;;;5031149;28;20320;-79
2022/05/18 12:28:11;;;;;;;0.00;0.00;;;21.70;45.50;;;;;;5031474;28;20021;-80
2022/05/18 12:30:40;;;;;;;0.00;0.00;;;21.80;46.10;;;;;;5031660;28;20017;-79
2022/05/18 12:33:07;;;;;;;0.00;0.00;;;21.90;46.30;;;;;;5049186;28;20048;-81
2022/05/18 12:35:46;;;;;;;0.00;0.00;;;21.90;46.30;;;;;;5050191;28;20021;-79
2022/05/18 12:38:27;;;;;;;0.00;0.00;;;22.00;46.90;;;;;;5030810;28;20025;-78
2022/05/18 12:41:00;;;;;;;0.00;0.00;;;21.90;45.50;;;;;;5050614;28;20097;-78
2022/05/18 12:43:31;;;;;;;0.00;0.00;;;21.70;45.30;;;;;;5034540;28;20090;-78
2022/05/18 12:46:27;;;;;;;0.00;0.00;;;21.70;46.10;;;;;;5033618;28;20155;-78
2022/05/18 12:49:00;;;;;;;0.00;0.00;;;21.30;44.70;;;;;;5050702;28;20017;-80
2022/05/18 12:51:31;;;;;;;0.00;0.00;;;21.40;47.40;;;;;;5032197;28;20048;-78
2022/05/18 12:54:09;;;;;;;0.00;0.00;;;21.50;45.40;;;;;;5062745;28;20052;-77
2022/05/18 12:56:35;;;;;;;0.00;0.00;;;21.40;44.20;;;;;;5067843;28;20044;-79
2022/05/18 12:59:08;;;;;;;0.00;0.00;;;21.40;43.30;;;;;;5068700;28;20045;-80
2022/05/18 13:01:44;;;;;;;0.00;0.00;;;21.50;44.30;;;;;;5068631;28;20024;-76
2022/05/18 13:04:10;;;;;;;0.00;0.00;;;21.50;45.00;;;;;;5070759;28;20024;-78
2022/05/18 13:06:35;;;;;;;0.00;0.00;;;21.50;48.50;;;;;;5070602;28;20070;-78
2022/05/18 13:09:29;;;;;;;0.00;0.00;;;21.60;45.80;;;;;;5068863;28;20431;-78
2022/05/18 13:12:00;;;;;;;0.00;0.00;;;21.60;45.00;;;;;;5069177;28;20013;-78
2022/05/18 13:14:25;;;;;;;0.00;0.00;;;21.50;46.40;;;;;;5068792;28;20054;-78
2022/05/18 13:42:14;;;;;;;0.00;0.00;;;21.50;41.00;;;;;;5070416;27;1322924;-79
2022/05/18 13:44:42;;;;;;;0.00;0.00;;;21.50;46.40;;;;;;5091428;28;20322;-77
2022/05/18 13:47:42;;;;;;;0.00;0.00;;;21.60;42.90;;;;;;5090158;28;20020;-80
2022/05/18 13:50:20;;;;;;;0.00;0.00;;;21.60;42.70;;;;;;5078434;27;20047;-85
2022/05/18 13:52:47;;;;;;;0.00;0.00;;;21.60;47.80;;;;;;5093333;28;20051;-79
2022/05/18 13:55:15;;;;;;;0.00;0.00;;;21.60;50.90;;;;;;5094500;28;20239;-77